KMER

Castle Airport

Atwater, California, USA
METAR KMER 182245Z 33010KT 10SM SKC 39/07 A2993
Observed Flight Rules
Aug-18 @ 22:45 UTC (60 minutes ago) Visual Flight Rules
Wind Visibility Clouds
330° at 10 knots 10 miles
  • Clear skies
Temperatures Readings
Current 39°C / 102°F
Dewpoint 7°C / 45°F
Humidity 14%
Altimeter 29.93" Hg
Pressure 1014 hPa
Elevation 57
METAR KMER 182245Z 33010KT 10SM SKC 39/07 A2993
Observed Flight Rules
Aug-18 @ 22:45 UTC
(60 minutes ago)
VFR
Wind Visibility
330° at 10 knots 10 miles
Clouds
  • Clear skies
Temperature Dewpoint
39°C / 102°F 7°C / 45°F
Humidity Altimeter Pressure
14% 29.93" Hg 1014 hPa